Main page
METAR-TAF:

METAR-TAF

Airports :

Kadala Airport

Chita, Russia

latitude: 52-05N, longitude: 113-29E, elevation: 685 m

Current weather observation

The report was made 37 minutes ago, at 18:00 UTC
Calm wind
Temperature -7°C
Humidity 93%
Pressure 1026 hPa
Visibility 10 km or more

METAR: UIAA 211800Z AUTO 00000MPS 9999 NCD M07/M08 Q1026 RMK QFE710/0947

Time: 03:37 (18:37 UTC)

Forecast

The report was made 1 hour and 37 minutes ago, at 17:00 UTC
Forecast valid from 21 at 18 UTC to 22 at 18 UTC
Wind 6 kt from the Southwest
Visibility 10 km or more
Temporary
from 21 at 18 UTC to 22 at 03 UTC
Visibility: 0500 m
at a height of 100 ft
freezing fog

TAF: UIAA 211700Z 2118/2218 22003MPS 9999 NSC TEMPO 2118/2203 0500 FZFG VV001

Weather observations and forecasts of more than 4000 airports (METAR and TAF reports).

The available stations are represented by yellow and red dots on the map.

Hover mouse over dot to see the name of the station.

Then click to see weather observations and forecasts.

To change the map : click on the green buttons with a black cross to zoom in, on the green button with a dash to zoom out, or on the green arrows for adjacent maps.


METAR-TAF: